Alex Mcallister — WDG5889 — position and weather

sailwx.info

Track history (hours):
 
Tides and Currents Weather Stations Pressure Air Temp Water Temp Dewpoint Dewpoint Depression Visibility Wind Speed Wind Dir Waves Ship Positions

Alex Mcallister

Owner: McAllister Towing & Transportation Co. Inc, Staten Island, NY. More information available from US FCC via Universal Licensing System and Coast Guard Vessel Documentation Center.

Last reported at 2018-Jul-23 07:18 UTC. Time now 2018-Jul-23 07:39 UTC.
Position N 40°38' W 074°12'.

Length 29 m; draft 4.5 m.

Type: Tug. MMSI: 367551340.

Date/timePositionNaut miles runAvg speedWind from/ knotsBaromVisibWave heightAir tempDewpointWater temp
2018-Jul-23 07:18N 40°38' W 074°12'3 9.1
2018-Jul-23 07:00N 40°39' W 074°09'1 2.5
2018-Jul-23 06:30N 40°40' W 074°08'0 0.0
2018-Jul-23 05:59N 40°40' W 074°08'0 0.0
2018-Jul-23 05:29N 40°40' W 074°08'0 0.0
2018-Jul-23 05:00N 40°40' W 074°08'0 0.0
2018-Jul-23 04:30N 40°40' W 074°08'0 0.0
2018-Jul-23 04:00N 40°40' W 074°08'0 0.0
2018-Jul-23 03:30N 40°40' W 074°08'0 0.0
2018-Jul-23 03:00N 40°40' W 074°08'0 0.0
2018-Jul-23 02:30N 40°40' W 074°08'0 0.0
2018-Jul-23 02:00N 40°40' W 074°08'0 0.0
2018-Jul-23 01:30N 40°40' W 074°08'0 0.0
2018-Jul-23 01:00N 40°40' W 074°08'0 0.0
2018-Jul-23 00:27N 40°40' W 074°08'0 0.0
2018-Jul-23 00:00N 40°40' W 074°08'0 0.0
2018-Jul-22 23:30N 40°40' W 074°08'0 0.0
2018-Jul-22 23:00N 40°40' W 074°08'0 0.0
2018-Jul-22 22:30N 40°40' W 074°08'0 0.0
2018-Jul-22 22:00N 40°40' W 074°08'2 3.7
2018-Jul-22 21:30N 40°39' W 074°09'1 0.3
2018-Jul-22 19:22N 40°39' W 074°09'0 0.4
2018-Jul-22 18:50N 40°39' W 074°08'1 0.1
2018-Jul-22 03:17N 40°38' W 074°10'2 0.5
2018-Jul-22 00:04N 40°38' W 074°12'1 9.9
2018-Jul-22 00:00N 40°39' W 074°11'2 4.5
2018-Jul-21 23:30N 40°39' W 074°09'1 1.2
2018-Jul-21 23:00N 40°40' W 074°09'2 3.8
2018-Jul-21 22:30N 40°38' W 074°10'0 0.0
2018-Jul-21 22:00N 40°38' W 074°10'0 0.0
2018-Jul-21 21:30N 40°38' W 074°10'0 0.0
2018-Jul-21 21:00N 40°38' W 074°10'0 0.0
2018-Jul-21 20:30N 40°38' W 074°10'0 0.0
2018-Jul-21 20:00N 40°38' W 074°10'0 0.0
2018-Jul-21 19:30N 40°38' W 074°10'0 0.0
2018-Jul-21 19:00N 40°38' W 074°10'0 0.0
2018-Jul-21 18:30N 40°38' W 074°10'2 4.6
2018-Jul-21 18:00N 40°40' W 074°08'2 4.6
2018-Jul-21 17:30N 40°38' W 074°10'0 0.0
2018-Jul-21 17:00N 40°38' W 074°10'0 0.0
2018-Jul-21 16:30N 40°38' W 074°10'0 0.0
2018-Jul-20 17:57N 40°38' W 074°10'2 5.0
2018-Jul-20 17:30N 40°40' W 074°08'0 0.0
2018-Jul-20 16:56N 40°40' W 074°08'0 0.0
2018-Jul-20 16:30N 40°40' W 074°08'0 0.0
2018-Jul-20 15:58N 40°40' W 074°08'0 0.0
2018-Jul-20 15:29N 40°40' W 074°08'0 0.4
2018-Jul-20 15:00N 40°40' W 074°08'0 0.4
2018-Jul-20 14:28N 40°40' W 074°08'2 1.3
2018-Jul-20 12:39N 40°38' W 074°10'0 0.0
2018-Jul-20 12:17N 40°38' W 074°10'0 0.0
2018-Jul-20 12:00N 40°38' W 074°10'0 0.0
2018-Jul-20 11:22N 40°38' W 074°10'0 0.0
2018-Jul-20 11:01N 40°38' W 074°10'0 0.0
2018-Jul-20 10:29N 40°38' W 074°10'0 0.0
2018-Jul-20 10:00N 40°38' W 074°10'0 0.0
2018-Jul-20 09:30N 40°38' W 074°10'0 0.0
2018-Jul-20 08:53N 40°38' W 074°10'0 0.0
2018-Jul-20 08:01N 40°38' W 074°10'0 1.1
2018-Jul-20 08:00N 40°38' W 074°10'0 0.0
2018-Jul-20 07:26N 40°38' W 074°10'0 0.0
2018-Jul-20 07:00N 40°38' W 074°10'0 0.0
2018-Jul-20 06:30N 40°38' W 074°10'0 0.0
2018-Jul-20 03:46N 40°38' W 074°10'0 0.0
2018-Jul-20 03:20N 40°38' W 074°10'0 0.0
2018-Jul-20 03:00N 40°38' W 074°10'0 0.0
2018-Jul-19 14:02N 40°38' W 074°10'2 3.4
2018-Jul-19 13:23N 40°40' W 074°08'0 0.6
2018-Jul-19 13:00N 40°40' W 074°08'1 2.8
2018-Jul-19 12:30N 40°39' W 074°09'  
2018-Jul-15 12:26N 40°38' W 074°10'0 0.0
2018-Jul-15 12:00N 40°38' W 074°10'0 0.0
2018-Jul-15 11:30N 40°38' W 074°10'0 0.0
2018-Jul-15 10:55N 40°38' W 074°10'0 0.0
2018-Jul-15 10:11N 40°38' W 074°10'0 0.0
2018-Jul-15 09:59N 40°38' W 074°10'0 0.0
2018-Jul-15 09:30N 40°38' W 074°10'0 0.0
2018-Jul-15 08:58N 40°38' W 074°10'0 0.0
2018-Jul-15 08:30N 40°38' W 074°10'0 0.0
2018-Jul-15 08:00N 40°38' W 074°10'0 0.0
2018-Jul-15 07:29N 40°38' W 074°10'0 0.0
2018-Jul-15 07:00N 40°38' W 074°10'0 0.0
2018-Jul-15 06:30N 40°38' W 074°10'0 0.0
2018-Jul-15 06:00N 40°38' W 074°10'0 0.0
2018-Jul-15 05:28N 40°38' W 074°10'0 0.0
2018-Jul-15 04:59N 40°38' W 074°10'0 0.0
2018-Jul-15 04:28N 40°38' W 074°10'0 0.0
2018-Jul-15 04:00N 40°38' W 074°10'0 0.0
2018-Jul-15 03:30N 40°38' W 074°10'0 0.0
2018-Jul-15 03:00N 40°38' W 074°10'0 0.0
2018-Jul-15 02:30N 40°38' W 074°10'0 0.0
2018-Jul-15 01:59N 40°38' W 074°10'0 0.0
2018-Jul-15 01:30N 40°38' W 074°10'0 0.0
2018-Jul-15 01:00N 40°38' W 074°10'0 0.0
2018-Jul-15 00:30N 40°38' W 074°10'0 0.0
2018-Jul-14 23:58N 40°38' W 074°10'0 0.0
2018-Jul-14 23:30N 40°38' W 074°10'0 0.0
2018-Jul-14 23:00N 40°38' W 074°10'0 0.0
2018-Jul-14 22:30N 40°38' W 074°10'0 0.0
2018-Jul-14 22:00N 40°38' W 074°10'0 0.0
2018-Jul-14 21:29N 40°38' W 074°10'0 0.0
2018-Jul-14 21:00N 40°38' W 074°10'0 0.0
2018-Jul-14 20:27N 40°38' W 074°10'0 0.0
2018-Jul-14 19:58N 40°38' W 074°10'1 1.1
2018-Jul-14 19:30N 40°39' W 074°10'2 1.0
2018-Jul-14 17:51N 40°38' W 074°12'0 0.1
2018-Jul-14 17:30N 40°38' W 074°12'2 3.4
2018-Jul-14 16:58N 40°38' W 074°10'1 1.7
2018-Jul-14 16:30N 40°38' W 074°09'2 3.7
2018-Jul-14 16:00N 40°39' W 074°06'2 3.6
2018-Jul-14 15:30N 40°39' W 074°09'1 1.3
2018-Jul-14 15:00N 40°40' W 074°09'1 2.4
2018-Jul-14 14:30N 40°39' W 074°09'1 0.3
2018-Jul-14 11:22N 40°38' W 074°10'2 4.4
2018-Jul-14 11:00N 40°40' W 074°09'1 2.1
2018-Jul-14 10:30N 40°41' W 074°09'0 0.7
2018-Jul-14 10:00N 40°41' W 074°09'1 1.6
2018-Jul-14 09:30N 40°41' W 074°08'2 4.6
2018-Jul-14 08:59N 40°38' W 074°10'0 0.0
2018-Jul-14 08:30N 40°38' W 074°10'0 0.0
2018-Jul-14 08:00N 40°38' W 074°10'0 0.0
2018-Jul-14 07:30N 40°38' W 074°10'0 0.0
2018-Jul-14 07:00N 40°38' W 074°10'0 0.0
2018-Jul-14 06:08N 40°38' W 074°10'0 0.0
2018-Jul-14 06:00N 40°38' W 074°10'0 0.0
2018-Jul-14 05:18N 40°38' W 074°10'1 0.3
2018-Jul-14 01:52N 40°38' W 074°09'3 7.4
2018-Jul-14 01:30N 40°39' W 074°05'0 0.0
2018-Jul-14 01:00N 40°39' W 074°05'0 0.3
2018-Jul-14 00:30N 40°39' W 074°05'2 3.5
2018-Jul-14 00:00N 40°38' W 074°03'1 1.8
2018-Jul-13 23:30N 40°39' W 074°04'3 6.6
2018-Jul-13 23:00N 40°39' W 074°08'1 2.1
2018-Jul-13 22:28N 40°38' W 074°10'0 0.0
2018-Jul-13 22:00N 40°38' W 074°10'0 0.0
2018-Jul-13 21:30N 40°38' W 074°10'0 0.0
2018-Jul-13 21:00N 40°38' W 074°10'0 0.0
2018-Jul-13 20:30N 40°38' W 074°10'0 0.0
2018-Jul-13 20:00N 40°38' W 074°10'0 0.0
2018-Jul-13 19:29N 40°38' W 074°10'0 0.0
2018-Jul-13 19:00N 40°38' W 074°10'0 0.0
2018-Jul-13 18:30N 40°38' W 074°10'0 0.0
2018-Jul-13 18:00N 40°38' W 074°10'0 0.0
2018-Jul-13 17:30N 40°38' W 074°10'0 0.0
2018-Jul-13 17:00N 40°38' W 074°10'0 0.0
2018-Jul-13 16:29N 40°38' W 074°10'0 0.0
2018-Jul-13 16:00N 40°38' W 074°10'0 0.0
2018-Jul-13 15:30N 40°38' W 074°10'0 0.0
2018-Jul-13 15:00N 40°38' W 074°10'0 0.0
2018-Jul-13 14:00N 40°38' W 074°10'0 0.0
2018-Jul-13 13:30N 40°38' W 074°10'0 0.0
2018-Jul-13 13:00N 40°38' W 074°10'0 0.0
2018-Jul-13 12:30N 40°38' W 074°10'1 1.6
2018-Jul-13 12:00N 40°38' W 074°09'2 3.1
2018-Jul-13 11:30N 40°40' W 074°08'1 2.1
2018-Jul-13 11:00N 40°41' W 074°09'2 4.8
2018-Jul-13 10:30N 40°39' W 074°09'2 4.1
2018-Jul-13 10:00N 40°39' W 074°06'0 0.7
2018-Jul-13 09:30N 40°39' W 074°07'1 1.2
2018-Jul-13 08:58N 40°39' W 074°06'3 5.3
2018-Jul-13 08:30N 40°39' W 074°09'1 3.0
2018-Jul-13 08:00N 40°40' W 074°08'1 1.7
2018-Jul-13 07:30N 40°41' W 074°09'  
Track history (hours):
 
Tides and Currents Weather Stations Pressure Air Temp Water Temp Dewpoint Dewpoint Depression Visibility Wind Speed Wind Dir Waves Ship Positions

Alex Mcallister

Owner: McAllister Towing & Transportation Co. Inc, Staten Island, NY. More information available from US FCC via Universal Licensing System and Coast Guard Vessel Documentation Center.

Last reported at 2018-Jul-23 07:18 UTC. Time now 2018-Jul-23 07:39 UTC.
Position N 40°38' W 074°12'.

Length 29 m; draft 4.5 m.

Type: Tug. MMSI: 367551340.

Date/timePositionNaut miles runAvg speedWind from/ knotsBaromVisibWave heightAir tempDewpointWater temp
2018-Jul-23 07:18N 40°38' W 074°12'3 9.1
2018-Jul-23 07:00N 40°39' W 074°09'1 2.5
2018-Jul-23 06:30N 40°40' W 074°08'0 0.0
2018-Jul-23 05:59N 40°40' W 074°08'0 0.0
2018-Jul-23 05:29N 40°40' W 074°08'0 0.0
2018-Jul-23 05:00N 40°40' W 074°08'0 0.0
2018-Jul-23 04:30N 40°40' W 074°08'0 0.0
2018-Jul-23 04:00N 40°40' W 074°08'0 0.0
2018-Jul-23 03:30N 40°40' W 074°08'0 0.0
2018-Jul-23 03:00N 40°40' W 074°08'0 0.0
2018-Jul-23 02:30N 40°40' W 074°08'0 0.0
2018-Jul-23 02:00N 40°40' W 074°08'0 0.0
2018-Jul-23 01:30N 40°40' W 074°08'0 0.0
2018-Jul-23 01:00N 40°40' W 074°08'0 0.0
2018-Jul-23 00:27N 40°40' W 074°08'0 0.0
2018-Jul-23 00:00N 40°40' W 074°08'0 0.0
2018-Jul-22 23:30N 40°40' W 074°08'0 0.0
2018-Jul-22 23:00N 40°40' W 074°08'0 0.0
2018-Jul-22 22:30N 40°40' W 074°08'0 0.0
2018-Jul-22 22:00N 40°40' W 074°08'2 3.7
2018-Jul-22 21:30N 40°39' W 074°09'1 0.3
2018-Jul-22 19:22N 40°39' W 074°09'0 0.4
2018-Jul-22 18:50N 40°39' W 074°08'1 0.1
2018-Jul-22 03:17N 40°38' W 074°10'2 0.5
2018-Jul-22 00:04N 40°38' W 074°12'1 9.9
2018-Jul-22 00:00N 40°39' W 074°11'2 4.5
2018-Jul-21 23:30N 40°39' W 074°09'1 1.2
2018-Jul-21 23:00N 40°40' W 074°09'2 3.8
2018-Jul-21 22:30N 40°38' W 074°10'0 0.0
2018-Jul-21 22:00N 40°38' W 074°10'0 0.0
2018-Jul-21 21:30N 40°38' W 074°10'0 0.0
2018-Jul-21 21:00N 40°38' W 074°10'0 0.0
2018-Jul-21 20:30N 40°38' W 074°10'0 0.0
2018-Jul-21 20:00N 40°38' W 074°10'0 0.0
2018-Jul-21 19:30N 40°38' W 074°10'0 0.0
2018-Jul-21 19:00N 40°38' W 074°10'0 0.0
2018-Jul-21 18:30N 40°38' W 074°10'2 4.6
2018-Jul-21 18:00N 40°40' W 074°08'2 4.6
2018-Jul-21 17:30N 40°38' W 074°10'0 0.0
2018-Jul-21 17:00N 40°38' W 074°10'0 0.0
2018-Jul-21 16:30N 40°38' W 074°10'0 0.0
2018-Jul-20 17:57N 40°38' W 074°10'2 5.0
2018-Jul-20 17:30N 40°40' W 074°08'0 0.0
2018-Jul-20 16:56N 40°40' W 074°08'0 0.0
2018-Jul-20 16:30N 40°40' W 074°08'0 0.0
2018-Jul-20 15:58N 40°40' W 074°08'0 0.0
2018-Jul-20 15:29N 40°40' W 074°08'0 0.4
2018-Jul-20 15:00N 40°40' W 074°08'0 0.4
2018-Jul-20 14:28N 40°40' W 074°08'2 1.3
2018-Jul-20 12:39N 40°38' W 074°10'0 0.0
2018-Jul-20 12:17N 40°38' W 074°10'0 0.0
2018-Jul-20 12:00N 40°38' W 074°10'0 0.0
2018-Jul-20 11:22N 40°38' W 074°10'0 0.0
2018-Jul-20 11:01N 40°38' W 074°10'0 0.0
2018-Jul-20 10:29N 40°38' W 074°10'0 0.0
2018-Jul-20 10:00N 40°38' W 074°10'0 0.0
2018-Jul-20 09:30N 40°38' W 074°10'0 0.0
2018-Jul-20 08:53N 40°38' W 074°10'0 0.0
2018-Jul-20 08:01N 40°38' W 074°10'0 1.1
2018-Jul-20 08:00N 40°38' W 074°10'0 0.0
2018-Jul-20 07:26N 40°38' W 074°10'0 0.0
2018-Jul-20 07:00N 40°38' W 074°10'0 0.0
2018-Jul-20 06:30N 40°38' W 074°10'0 0.0
2018-Jul-20 03:46N 40°38' W 074°10'0 0.0
2018-Jul-20 03:20N 40°38' W 074°10'0 0.0
2018-Jul-20 03:00N 40°38' W 074°10'0 0.0
2018-Jul-19 14:02N 40°38' W 074°10'2 3.4
2018-Jul-19 13:23N 40°40' W 074°08'0 0.6
2018-Jul-19 13:00N 40°40' W 074°08'1 2.8
2018-Jul-19 12:30N 40°39' W 074°09'  
2018-Jul-15 12:26N 40°38' W 074°10'0 0.0
2018-Jul-15 12:00N 40°38' W 074°10'0 0.0
2018-Jul-15 11:30N 40°38' W 074°10'0 0.0
2018-Jul-15 10:55N 40°38' W 074°10'0 0.0
2018-Jul-15 10:11N 40°38' W 074°10'0 0.0
2018-Jul-15 09:59N 40°38' W 074°10'0 0.0
2018-Jul-15 09:30N 40°38' W 074°10'0 0.0
2018-Jul-15 08:58N 40°38' W 074°10'0 0.0
2018-Jul-15 08:30N 40°38' W 074°10'0 0.0
2018-Jul-15 08:00N 40°38' W 074°10'0 0.0
2018-Jul-15 07:29N 40°38' W 074°10'0 0.0
2018-Jul-15 07:00N 40°38' W 074°10'0 0.0
2018-Jul-15 06:30N 40°38' W 074°10'0 0.0
2018-Jul-15 06:00N 40°38' W 074°10'0 0.0
2018-Jul-15 05:28N 40°38' W 074°10'0 0.0
2018-Jul-15 04:59N 40°38' W 074°10'0 0.0
2018-Jul-15 04:28N 40°38' W 074°10'0 0.0
2018-Jul-15 04:00N 40°38' W 074°10'0 0.0
2018-Jul-15 03:30N 40°38' W 074°10'0 0.0
2018-Jul-15 03:00N 40°38' W 074°10'0 0.0
2018-Jul-15 02:30N 40°38' W 074°10'0 0.0
2018-Jul-15 01:59N 40°38' W 074°10'0 0.0
2018-Jul-15 01:30N 40°38' W 074°10'0 0.0
2018-Jul-15 01:00N 40°38' W 074°10'0 0.0
2018-Jul-15 00:30N 40°38' W 074°10'0 0.0
2018-Jul-14 23:58N 40°38' W 074°10'0 0.0
2018-Jul-14 23:30N 40°38' W 074°10'0 0.0
2018-Jul-14 23:00N 40°38' W 074°10'0 0.0
2018-Jul-14 22:30N 40°38' W 074°10'0 0.0
2018-Jul-14 22:00N 40°38' W 074°10'0 0.0
2018-Jul-14 21:29N 40°38' W 074°10'0 0.0
2018-Jul-14 21:00N 40°38' W 074°10'0 0.0
2018-Jul-14 20:27N 40°38' W 074°10'0 0.0
2018-Jul-14 19:58N 40°38' W 074°10'1 1.1
2018-Jul-14 19:30N 40°39' W 074°10'2 1.0
2018-Jul-14 17:51N 40°38' W 074°12'0 0.1
2018-Jul-14 17:30N 40°38' W 074°12'2 3.4
2018-Jul-14 16:58N 40°38' W 074°10'1 1.7
2018-Jul-14 16:30N 40°38' W 074°09'2 3.7
2018-Jul-14 16:00N 40°39' W 074°06'2 3.6
2018-Jul-14 15:30N 40°39' W 074°09'1 1.3
2018-Jul-14 15:00N 40°40' W 074°09'1 2.4
2018-Jul-14 14:30N 40°39' W 074°09'1 0.3
2018-Jul-14 11:22N 40°38' W 074°10'2 4.4
2018-Jul-14 11:00N 40°40' W 074°09'1 2.1
2018-Jul-14 10:30N 40°41' W 074°09'0 0.7
2018-Jul-14 10:00N 40°41' W 074°09'1 1.6
2018-Jul-14 09:30N 40°41' W 074°08'2 4.6
2018-Jul-14 08:59N 40°38' W 074°10'0 0.0
2018-Jul-14 08:30N 40°38' W 074°10'0 0.0
2018-Jul-14 08:00N 40°38' W 074°10'0 0.0
2018-Jul-14 07:30N 40°38' W 074°10'0 0.0
2018-Jul-14 07:00N 40°38' W 074°10'0 0.0
2018-Jul-14 06:08N 40°38' W 074°10'0 0.0
2018-Jul-14 06:00N 40°38' W 074°10'0 0.0
2018-Jul-14 05:18N 40°38' W 074°10'1 0.3
2018-Jul-14 01:52N 40°38' W 074°09'3 7.4
2018-Jul-14 01:30N 40°39' W 074°05'0 0.0
2018-Jul-14 01:00N 40°39' W 074°05'0 0.3
2018-Jul-14 00:30N 40°39' W 074°05'2 3.5
2018-Jul-14 00:00N 40°38' W 074°03'1 1.8
2018-Jul-13 23:30N 40°39' W 074°04'3 6.6
2018-Jul-13 23:00N 40°39' W 074°08'1 2.1
2018-Jul-13 22:28N 40°38' W 074°10'0 0.0
2018-Jul-13 22:00N 40°38' W 074°10'0 0.0
2018-Jul-13 21:30N 40°38' W 074°10'0 0.0
2018-Jul-13 21:00N 40°38' W 074°10'0 0.0
2018-Jul-13 20:30N 40°38' W 074°10'0 0.0
2018-Jul-13 20:00N 40°38' W 074°10'0 0.0
2018-Jul-13 19:29N 40°38' W 074°10'0 0.0
2018-Jul-13 19:00N 40°38' W 074°10'0 0.0
2018-Jul-13 18:30N 40°38' W 074°10'0 0.0
2018-Jul-13 18:00N 40°38' W 074°10'0 0.0
2018-Jul-13 17:30N 40°38' W 074°10'0 0.0
2018-Jul-13 17:00N 40°38' W 074°10'0 0.0
2018-Jul-13 16:29N 40°38' W 074°10'0 0.0
2018-Jul-13 16:00N 40°38' W 074°10'0 0.0
2018-Jul-13 15:30N 40°38' W 074°10'0 0.0
2018-Jul-13 15:00N 40°38' W 074°10'0 0.0
2018-Jul-13 14:00N 40°38' W 074°10'0 0.0
2018-Jul-13 13:30N 40°38' W 074°10'0 0.0
2018-Jul-13 13:00N 40°38' W 074°10'0 0.0
2018-Jul-13 12:30N 40°38' W 074°10'1 1.6
2018-Jul-13 12:00N 40°38' W 074°09'2 3.1
2018-Jul-13 11:30N 40°40' W 074°08'1 2.1
2018-Jul-13 11:00N 40°41' W 074°09'2 4.8
2018-Jul-13 10:30N 40°39' W 074°09'2 4.1
2018-Jul-13 10:00N 40°39' W 074°06'0 0.7
2018-Jul-13 09:30N 40°39' W 074°07'1 1.2
2018-Jul-13 08:58N 40°39' W 074°06'3 5.3
2018-Jul-13 08:30N 40°39' W 074°09'1 3.0
2018-Jul-13 08:00N 40°40' W 074°08'1 1.7
2018-Jul-13 07:30N 40°41' W 074°09'  

Dump ship's entire track history